sensor_id;sensor_type;location;lat;lon;timestamp;pressure;altitude;pressure_sealevel;temperature;humidity
27334;BME280;14817;57.104;-2.094;2023-07-31T00:02:26;98201.72;;;15.51;100.00
27334;BME280;14817;57.104;-2.094;2023-07-31T00:04:52;98217.91;;;15.51;100.00
27334;BME280;14817;57.104;-2.094;2023-07-31T00:07:19;98218.78;;;15.40;100.00
27334;BME280;14817;57.104;-2.094;2023-07-31T00:09:46;98222.28;;;15.40;100.00
27334;BME280;14817;57.104;-2.094;2023-07-31T00:12:13;98226.66;;;15.29;100.00
27334;BME280;14817;57.104;-2.094;2023-07-31T00:14:39;98227.72;;;15.28;100.00
27334;BME280;14817;57.104;-2.094;2023-07-31T00:17:06;98232.69;;;15.20;100.00
27334;BME280;14817;57.104;-2.094;2023-07-31T00:19:34;98250.97;;;15.06;100.00
27334;BME280;14817;57.104;-2.094;2023-07-31T00:22:00;98214.00;;;14.89;100.00
27334;BME280;14817;57.104;-2.094;2023-07-31T00:24:27;98236.84;;;14.75;100.00
27334;BME280;14817;57.104;-2.094;2023-07-31T00:26:57;98256.75;;;14.74;100.00
27334;BME280;14817;57.104;-2.094;2023-07-31T00:29:32;98263.66;;;14.70;100.00
27334;BME280;14817;57.104;-2.094;2023-07-31T00:32:02;98267.66;;;14.67;100.00
27334;BME280;14817;57.104;-2.094;2023-07-31T00:34:31;98283.59;;;14.69;100.00
27334;BME280;14817;57.104;-2.094;2023-07-31T00:36:57;98285.47;;;14.68;100.00
27334;BME280;14817;57.104;-2.094;2023-07-31T00:39:27;98261.81;;;14.70;100.00
27334;BME280;14817;57.104;-2.094;2023-07-31T00:41:56;98268.50;;;14.68;100.00
27334;BME280;14817;57.104;-2.094;2023-07-31T00:44:23;98266.50;;;14.63;100.00
27334;BME280;14817;57.104;-2.094;2023-07-31T00:46:49;98257.94;;;14.66;100.00
27334;BME280;14817;57.104;-2.094;2023-07-31T00:49:16;98243.53;;;14.61;100.00
27334;BME280;14817;57.104;-2.094;2023-07-31T00:51:43;98234.66;;;14.60;100.00
27334;BME280;14817;57.104;-2.094;2023-07-31T00:54:09;98225.59;;;14.55;100.00
27334;BME280;14817;57.104;-2.094;2023-07-31T00:56:38;98213.19;;;14.54;100.00
27334;BME280;14817;57.104;-2.094;2023-07-31T00:59:05;98208.25;;;14.50;100.00
27334;BME280;14817;57.104;-2.094;2023-07-31T01:01:32;98199.50;;;14.43;100.00
27334;BME280;14817;57.104;-2.094;2023-07-31T01:03:59;98175.72;;;14.40;100.00
27334;BME280;14817;57.104;-2.094;2023-07-31T01:06:36;98147.41;;;14.26;100.00
27334;BME280;14817;57.104;-2.094;2023-07-31T01:12:01;98042.19;;;14.16;100.00
27334;BME280;14817;57.104;-2.094;2023-07-31T01:14:28;97984.84;;;14.15;100.00
27334;BME280;14817;57.104;-2.094;2023-07-31T01:16:55;97948.41;;;14.24;100.00
27334;BME280;14817;57.104;-2.094;2023-07-31T01:19:23;97848.25;;;14.22;100.00
27334;BME280;14817;57.104;-2.094;2023-07-31T01:24:30;97861.47;;;14.24;100.00
27334;BME280;14817;57.104;-2.094;2023-07-31T01:27:15;97851.66;;;14.18;100.00
27334;BME280;14817;57.104;-2.094;2023-07-31T01:32:18;97819.28;;;14.13;100.00
27334;BME280;14817;57.104;-2.094;2023-07-31T01:34:46;97805.56;;;14.14;100.00
27334;BME280;14817;57.104;-2.094;2023-07-31T01:37:13;97804.97;;;14.12;100.00
27334;BME280;14817;57.104;-2.094;2023-07-31T01:39:40;97787.94;;;14.06;100.00
27334;BME280;14817;57.104;-2.094;2023-07-31T01:42:06;97786.88;;;14.07;100.00
27334;BME280;14817;57.104;-2.094;2023-07-31T01:44:34;97783.94;;;14.09;100.00
27334;BME280;14817;57.104;-2.094;2023-07-31T01:47:04;97778.38;;;13.99;100.00
27334;BME280;14817;57.104;-2.094;2023-07-31T01:49:30;97766.31;;;14.01;100.00
27334;BME280;14817;57.104;-2.094;2023-07-31T01:51:57;97761.50;;;14.03;100.00
27334;BME280;14817;57.104;-2.094;2023-07-31T01:54:24;97769.84;;;14.02;100.00
27334;BME280;14817;57.104;-2.094;2023-07-31T01:56:50;97775.22;;;14.02;100.00
27334;BME280;14817;57.104;-2.094;2023-07-31T01:59:17;97773.81;;;13.99;100.00
27334;BME280;14817;57.104;-2.094;2023-07-31T02:01:44;97773.16;;;13.92;100.00
27334;BME280;14817;57.104;-2.094;2023-07-31T02:04:11;97775.34;;;13.95;100.00
27334;BME280;14817;57.104;-2.094;2023-07-31T02:06:37;97782.75;;;13.88;100.00
27334;BME280;14817;57.104;-2.094;2023-07-31T02:09:05;97778.94;;;13.84;100.00
27334;BME280;14817;57.104;-2.094;2023-07-31T02:11:32;97776.47;;;13.82;100.00
27334;BME280;14817;57.104;-2.094;2023-07-31T02:13:58;97774.03;;;13.81;100.00
27334;BME280;14817;57.104;-2.094;2023-07-31T02:16:25;97763.00;;;13.82;100.00
27334;BME280;14817;57.104;-2.094;2023-07-31T02:18:52;97762.69;;;13.79;100.00
27334;BME280;14817;57.104;-2.094;2023-07-31T02:21:18;97764.91;;;13.82;100.00
27334;BME280;14817;57.104;-2.094;2023-07-31T02:23:45;97772.50;;;13.85;100.00
27334;BME280;14817;57.104;-2.094;2023-07-31T02:26:12;97764.16;;;13.86;100.00
27334;BME280;14817;57.104;-2.094;2023-07-31T02:28:38;97783.00;;;13.86;100.00
27334;BME280;14817;57.104;-2.094;2023-07-31T02:31:05;97790.03;;;13.87;100.00
27334;BME280;14817;57.104;-2.094;2023-07-31T02:33:33;97791.22;;;13.80;100.00
27334;BME280;14817;57.104;-2.094;2023-07-31T02:36:00;97800.59;;;13.77;100.00
27334;BME280;14817;57.104;-2.094;2023-07-31T02:38:26;97801.41;;;13.78;100.00
27334;BME280;14817;57.104;-2.094;2023-07-31T02:40:53;97805.16;;;13.77;100.00
27334;BME280;14817;57.104;-2.094;2023-07-31T02:43:20;97808.09;;;13.75;100.00
27334;BME280;14817;57.104;-2.094;2023-07-31T02:45:50;97816.38;;;13.74;100.00
27334;BME280;14817;57.104;-2.094;2023-07-31T02:48:17;97816.72;;;13.77;100.00
27334;BME280;14817;57.104;-2.094;2023-07-31T02:50:44;97817.31;;;13.79;100.00
27334;BME280;14817;57.104;-2.094;2023-07-31T02:53:11;97812.75;;;13.80;100.00
27334;BME280;14817;57.104;-2.094;2023-07-31T02:55:38;97814.28;;;13.76;100.00
27334;BME280;14817;57.104;-2.094;2023-07-31T02:58:05;97807.84;;;13.77;100.00
27334;BME280;14817;57.104;-2.094;2023-07-31T03:00:31;97801.91;;;13.75;100.00
27334;BME280;14817;57.104;-2.094;2023-07-31T03:02:58;97794.88;;;13.74;100.00
27334;BME280;14817;57.104;-2.094;2023-07-31T03:05:26;97803.88;;;13.67;100.00
27334;BME280;14817;57.104;-2.094;2023-07-31T03:07:53;97788.97;;;13.60;100.00
27334;BME280;14817;57.104;-2.094;2023-07-31T03:10:20;97787.81;;;13.56;100.00
27334;BME280;14817;57.104;-2.094;2023-07-31T03:12:47;97783.25;;;13.56;100.00
27334;BME280;14817;57.104;-2.094;2023-07-31T03:15:14;97782.09;;;13.52;100.00
27334;BME280;14817;57.104;-2.094;2023-07-31T03:17:41;97779.88;;;13.49;100.00
27334;BME280;14817;57.104;-2.094;2023-07-31T03:20:08;97780.47;;;13.51;100.00
27334;BME280;14817;57.104;-2.094;2023-07-31T03:22:35;97774.28;;;13.51;100.00
27334;BME280;14817;57.104;-2.094;2023-07-31T03:25:02;97769.13;;;13.49;100.00
27334;BME280;14817;57.104;-2.094;2023-07-31T03:27:29;97758.84;;;13.46;100.00
27334;BME280;14817;57.104;-2.094;2023-07-31T03:29:56;97753.72;;;13.44;100.00
27334;BME280;14817;57.104;-2.094;2023-07-31T03:32:23;97736.19;;;13.42;100.00
27334;BME280;14817;57.104;-2.094;2023-07-31T03:34:49;97742.41;;;13.42;100.00
27334;BME280;14817;57.104;-2.094;2023-07-31T03:37:16;97729.19;;;13.41;100.00
27334;BME280;14817;57.104;-2.094;2023-07-31T03:39:43;97719.00;;;13.43;100.00
27334;BME280;14817;57.104;-2.094;2023-07-31T03:42:09;97716.66;;;13.46;100.00
27334;BME280;14817;57.104;-2.094;2023-07-31T03:44:36;97719.09;;;13.48;100.00
27334;BME280;14817;57.104;-2.094;2023-07-31T03:47:04;97714.28;;;13.50;100.00
27334;BME280;14817;57.104;-2.094;2023-07-31T03:49:31;97697.69;;;13.53;100.00
27334;BME280;14817;57.104;-2.094;2023-07-31T03:51:57;97667.53;;;13.51;100.00
27334;BME280;14817;57.104;-2.094;2023-07-31T03:54:24;97649.28;;;13.53;100.00
27334;BME280;14817;57.104;-2.094;2023-07-31T03:56:51;97651.50;;;13.56;100.00
27334;BME280;14817;57.104;-2.094;2023-07-31T03:59:19;97646.78;;;13.63;100.00
27334;BME280;14817;57.104;-2.094;2023-07-31T04:01:45;97637.41;;;13.66;100.00
27334;BME280;14817;57.104;-2.094;2023-07-31T04:04:12;97637.72;;;13.69;100.00
27334;BME280;14817;57.104;-2.094;2023-07-31T04:06:39;97634.31;;;13.74;100.00
27334;BME280;14817;57.104;-2.094;2023-07-31T04:09:06;97627.06;;;13.75;100.00
27334;BME280;14817;57.104;-2.094;2023-07-31T04:11:33;97622.72;;;13.74;100.00
27334;BME280;14817;57.104;-2.094;2023-07-31T04:13:59;97613.03;;;13.73;100.00
27334;BME280;14817;57.104;-2.094;2023-07-31T04:16:26;97609.53;;;13.72;100.00
27334;BME280;14817;57.104;-2.094;2023-07-31T04:18:53;97607.16;;;13.76;100.00
27334;BME280;14817;57.104;-2.094;2023-07-31T04:21:19;97605.31;;;13.76;100.00
27334;BME280;14817;57.104;-2.094;2023-07-31T04:23:46;97589.47;;;13.80;100.00
27334;BME280;14817;57.104;-2.094;2023-07-31T04:26:13;97584.44;;;13.83;100.00
27334;BME280;14817;57.104;-2.094;2023-07-31T04:28:39;97580.75;;;13.89;100.00
27334;BME280;14817;57.104;-2.094;2023-07-31T04:31:06;97566.81;;;13.93;100.00
27334;BME280;14817;57.104;-2.094;2023-07-31T04:33:33;97560.19;;;14.00;100.00
27334;BME280;14817;57.104;-2.094;2023-07-31T04:36:00;97550.88;;;14.08;100.00
27334;BME280;14817;57.104;-2.094;2023-07-31T04:38:27;97545.66;;;14.40;100.00
27334;BME280;14817;57.104;-2.094;2023-07-31T04:40:53;97530.00;;;14.81;100.00
27334;BME280;14817;57.104;-2.094;2023-07-31T04:43:20;97507.91;;;15.11;100.00
27334;BME280;14817;57.104;-2.094;2023-07-31T04:45:47;97496.66;;;15.57;100.00
27334;BME280;14817;57.104;-2.094;2023-07-31T04:48:14;97498.44;;;15.74;100.00
27334;BME280;14817;57.104;-2.094;2023-07-31T04:50:41;97501.09;;;16.21;100.00
27334;BME280;14817;57.104;-2.094;2023-07-31T04:53:08;97515.25;;;16.49;100.00
27334;BME280;14817;57.104;-2.094;2023-07-31T04:55:34;97527.03;;;16.90;100.00
27334;BME280;14817;57.104;-2.094;2023-07-31T04:58:01;97544.91;;;16.97;100.00
27334;BME280;14817;57.104;-2.094;2023-07-31T05:00:28;97551.69;;;17.40;100.00
27334;BME280;14817;57.104;-2.094;2023-07-31T05:02:55;97569.59;;;17.82;100.00
27334;BME280;14817;57.104;-2.094;2023-07-31T05:05:22;97595.56;;;18.04;100.00
27334;BME280;14817;57.104;-2.094;2023-07-31T05:07:48;97626.66;;;18.22;100.00
27334;BME280;14817;57.104;-2.094;2023-07-31T05:10:15;97672.72;;;17.96;100.00
27334;BME280;14817;57.104;-2.094;2023-07-31T05:12:42;97699.00;;;17.07;100.00
27334;BME280;14817;57.104;-2.094;2023-07-31T05:15:09;97711.34;;;16.82;100.00
27334;BME280;14817;57.104;-2.094;2023-07-31T05:17:35;97720.97;;;16.68;100.00
27334;BME280;14817;57.104;-2.094;2023-07-31T05:20:02;97722.47;;;16.48;100.00
27334;BME280;14817;57.104;-2.094;2023-07-31T05:22:29;97715.66;;;16.83;100.00
27334;BME280;14817;57.104;-2.094;2023-07-31T05:24:56;97722.06;;;16.72;100.00
27334;BME280;14817;57.104;-2.094;2023-07-31T05:27:22;97722.16;;;16.45;100.00
27334;BME280;14817;57.104;-2.094;2023-07-31T05:29:49;97713.06;;;16.19;100.00
27334;BME280;14817;57.104;-2.094;2023-07-31T05:32:16;97713.75;;;16.04;100.00
27334;BME280;14817;57.104;-2.094;2023-07-31T05:34:42;97679.50;;;16.09;100.00
27334;BME280;14817;57.104;-2.094;2023-07-31T05:37:10;97675.16;;;16.03;100.00
27334;BME280;14817;57.104;-2.094;2023-07-31T05:39:36;97650.88;;;16.08;100.00
27334;BME280;14817;57.104;-2.094;2023-07-31T05:42:03;97642.22;;;16.06;100.00
27334;BME280;14817;57.104;-2.094;2023-07-31T05:44:30;97628.13;;;15.99;100.00
27334;BME280;14817;57.104;-2.094;2023-07-31T05:46:57;97615.53;;;16.15;100.00
27334;BME280;14817;57.104;-2.094;2023-07-31T05:49:23;97630.16;;;15.82;100.00
27334;BME280;14817;57.104;-2.094;2023-07-31T05:51:50;97609.25;;;15.99;100.00
27334;BME280;14817;57.104;-2.094;2023-07-31T05:54:17;97604.78;;;15.83;100.00
27334;BME280;14817;57.104;-2.094;2023-07-31T05:56:44;97589.72;;;15.87;100.00
27334;BME280;14817;57.104;-2.094;2023-07-31T05:59:11;97583.75;;;15.85;100.00
27334;BME280;14817;57.104;-2.094;2023-07-31T06:01:39;97578.59;;;15.78;100.00
27334;BME280;14817;57.104;-2.094;2023-07-31T06:04:05;97562.16;;;15.85;100.00
27334;BME280;14817;57.104;-2.094;2023-07-31T06:06:32;97550.31;;;15.86;100.00
27334;BME280;14817;57.104;-2.094;2023-07-31T06:08:59;97547.56;;;15.81;100.00
27334;BME280;14817;57.104;-2.094;2023-07-31T06:11:26;97541.97;;;15.87;100.00
27334;BME280;14817;57.104;-2.094;2023-07-31T06:13:52;97530.25;;;15.71;100.00
27334;BME280;14817;57.104;-2.094;2023-07-31T06:16:19;97508.75;;;15.82;100.00
27334;BME280;14817;57.104;-2.094;2023-07-31T06:18:47;97518.19;;;15.84;100.00
27334;BME280;14817;57.104;-2.094;2023-07-31T06:21:14;97506.09;;;15.92;100.00
27334;BME280;14817;57.104;-2.094;2023-07-31T06:23:41;97503.72;;;16.01;100.00
27334;BME280;14817;57.104;-2.094;2023-07-31T06:26:08;97496.91;;;15.93;100.00
27334;BME280;14817;57.104;-2.094;2023-07-31T06:28:34;97493.97;;;15.95;100.00
27334;BME280;14817;57.104;-2.094;2023-07-31T06:31:01;97499.09;;;15.96;100.00
27334;BME280;14817;57.104;-2.094;2023-07-31T06:33:28;97485.94;;;16.05;100.00
27334;BME280;14817;57.104;-2.094;2023-07-31T06:35:55;97481.41;;;16.21;100.00
27334;BME280;14817;57.104;-2.094;2023-07-31T06:38:22;97463.72;;;16.76;100.00
27334;BME280;14817;57.104;-2.094;2023-07-31T06:40:48;97458.09;;;17.24;100.00
27334;BME280;14817;57.104;-2.094;2023-07-31T06:43:15;97450.03;;;18.30;100.00
27334;BME280;14817;57.104;-2.094;2023-07-31T06:45:42;97480.25;;;19.42;100.00
27334;BME280;14817;57.104;-2.094;2023-07-31T06:48:09;97537.53;;;20.28;100.00
27334;BME280;14817;57.104;-2.094;2023-07-31T06:50:36;97582.00;;;20.85;100.00
27334;BME280;14817;57.104;-2.094;2023-07-31T06:53:03;97576.59;;;21.23;100.00
27334;BME280;14817;57.104;-2.094;2023-07-31T06:55:30;97597.63;;;21.36;100.00
27334;BME280;14817;57.104;-2.094;2023-07-31T06:57:57;97590.28;;;22.21;100.00
27334;BME280;14817;57.104;-2.094;2023-07-31T07:00:23;97731.28;;;22.16;100.00
27334;BME280;14817;57.104;-2.094;2023-07-31T07:02:50;97757.75;;;21.96;100.00
27334;BME280;14817;57.104;-2.094;2023-07-31T07:05:17;97765.13;;;22.15;100.00
27334;BME280;14817;57.104;-2.094;2023-07-31T07:07:45;97768.56;;;22.39;100.00
27334;BME280;14817;57.104;-2.094;2023-07-31T07:10:12;97785.06;;;23.41;100.00
27334;BME280;14817;57.104;-2.094;2023-07-31T07:12:38;97809.72;;;23.09;100.00
27334;BME280;14817;57.104;-2.094;2023-07-31T07:15:05;97821.97;;;22.92;100.00
27334;BME280;14817;57.104;-2.094;2023-07-31T07:17:32;97835.59;;;23.11;100.00
27334;BME280;14817;57.104;-2.094;2023-07-31T07:19:59;97849.38;;;23.20;100.00
27334;BME280;14817;57.104;-2.094;2023-07-31T07:22:26;97835.38;;;23.08;100.00
27334;BME280;14817;57.104;-2.094;2023-07-31T07:24:54;97840.75;;;22.28;100.00
27334;BME280;14817;57.104;-2.094;2023-07-31T07:27:20;97836.72;;;22.91;100.00
27334;BME280;14817;57.104;-2.094;2023-07-31T07:29:47;97843.97;;;22.30;100.00
27334;BME280;14817;57.104;-2.094;2023-07-31T07:32:16;97841.91;;;23.39;100.00
27334;BME280;14817;57.104;-2.094;2023-07-31T07:34:43;97851.53;;;23.04;100.00
27334;BME280;14817;57.104;-2.094;2023-07-31T07:37:11;97846.06;;;23.51;100.00
27334;BME280;14817;57.104;-2.094;2023-07-31T07:39:37;97847.03;;;23.13;100.00
27334;BME280;14817;57.104;-2.094;2023-07-31T07:42:04;97853.69;;;23.07;100.00
27334;BME280;14817;57.104;-2.094;2023-07-31T07:44:31;97885.47;;;23.77;100.00
27334;BME280;14817;57.104;-2.094;2023-07-31T07:46:58;98205.69;;;24.17;100.00
27334;BME280;14817;57.104;-2.094;2023-07-31T07:49:25;98316.44;;;24.01;100.00
27334;BME280;14817;57.104;-2.094;2023-07-31T07:51:51;98396.59;;;23.48;100.00
27334;BME280;14817;57.104;-2.094;2023-07-31T07:54:18;98341.34;;;22.34;100.00
27334;BME280;14817;57.104;-2.094;2023-07-31T07:56:46;98349.25;;;21.81;100.00
27334;BME280;14817;57.104;-2.094;2023-07-31T07:59:13;98317.16;;;22.12;100.00
27334;BME280;14817;57.104;-2.094;2023-07-31T08:01:40;98249.44;;;21.90;100.00
27334;BME280;14817;57.104;-2.094;2023-07-31T08:04:06;98290.47;;;22.49;100.00
27334;BME280;14817;57.104;-2.094;2023-07-31T08:06:33;98392.00;;;23.43;100.00
27334;BME280;14817;57.104;-2.094;2023-07-31T08:09:00;98418.97;;;23.21;100.00
27334;BME280;14817;57.104;-2.094;2023-07-31T08:11:32;98497.94;;;23.52;100.00
27334;BME280;14817;57.104;-2.094;2023-07-31T08:13:58;98504.19;;;23.87;100.00
27334;BME280;14817;57.104;-2.094;2023-07-31T08:16:25;98523.25;;;24.40;100.00
27334;BME280;14817;57.104;-2.094;2023-07-31T08:18:52;98557.44;;;24.42;100.00
27334;BME280;14817;57.104;-2.094;2023-07-31T08:21:19;98560.34;;;24.75;100.00
27334;BME280;14817;57.104;-2.094;2023-07-31T08:23:45;98583.97;;;24.90;100.00
27334;BME280;14817;57.104;-2.094;2023-07-31T08:26:15;98575.44;;;24.92;100.00
27334;BME280;14817;57.104;-2.094;2023-07-31T08:28:42;98507.06;;;23.66;100.00
27334;BME280;14817;57.104;-2.094;2023-07-31T08:31:09;98557.53;;;24.08;100.00
27334;BME280;14817;57.104;-2.094;2023-07-31T08:33:37;98587.91;;;24.07;100.00
27334;BME280;14817;57.104;-2.094;2023-07-31T08:36:04;98560.53;;;22.54;100.00
27334;BME280;14817;57.104;-2.094;2023-07-31T08:38:31;98491.59;;;22.82;100.00
27334;BME280;14817;57.104;-2.094;2023-07-31T08:40:58;98493.34;;;22.63;100.00
27334;BME280;14817;57.104;-2.094;2023-07-31T08:43:25;98513.06;;;23.05;100.00
27334;BME280;14817;57.104;-2.094;2023-07-31T08:45:53;98474.84;;;22.99;100.00
27334;BME280;14817;57.104;-2.094;2023-07-31T08:48:21;98486.19;;;22.77;100.00
27334;BME280;14817;57.104;-2.094;2023-07-31T08:50:48;98501.19;;;23.54;100.00
27334;BME280;14817;57.104;-2.094;2023-07-31T08:53:15;98492.75;;;23.50;100.00
27334;BME280;14817;57.104;-2.094;2023-07-31T08:55:44;98539.00;;;23.76;100.00
27334;BME280;14817;57.104;-2.094;2023-07-31T08:58:10;98546.25;;;23.22;100.00
27334;BME280;14817;57.104;-2.094;2023-07-31T09:00:38;98509.69;;;23.18;100.00
27334;BME280;14817;57.104;-2.094;2023-07-31T09:03:11;98482.91;;;23.20;100.00
27334;BME280;14817;57.104;-2.094;2023-07-31T09:05:40;98481.78;;;23.26;100.00
27334;BME280;14817;57.104;-2.094;2023-07-31T09:08:09;98431.09;;;22.26;100.00
27334;BME280;14817;57.104;-2.094;2023-07-31T09:10:40;98390.00;;;22.07;100.00
27334;BME280;14817;57.104;-2.094;2023-07-31T09:13:07;98422.53;;;22.48;100.00
27334;BME280;14817;57.104;-2.094;2023-07-31T09:15:38;98410.44;;;22.09;100.00
27334;BME280;14817;57.104;-2.094;2023-07-31T09:18:06;98329.41;;;21.70;100.00
27334;BME280;14817;57.104;-2.094;2023-07-31T09:20:33;98359.41;;;21.60;100.00
27334;BME280;14817;57.104;-2.094;2023-07-31T09:25:33;98323.25;;;21.24;100.00
27334;BME280;14817;57.104;-2.094;2023-07-31T09:28:01;98304.72;;;21.36;100.00
27334;BME280;14817;57.104;-2.094;2023-07-31T09:30:29;98313.53;;;20.71;100.00
27334;BME280;14817;57.104;-2.094;2023-07-31T09:33:05;98320.31;;;20.94;100.00
27334;BME280;14817;57.104;-2.094;2023-07-31T09:35:34;98311.56;;;21.23;100.00
27334;BME280;14817;57.104;-2.094;2023-07-31T09:38:03;98244.19;;;20.64;100.00
27334;BME280;14817;57.104;-2.094;2023-07-31T09:40:31;98199.44;;;21.66;100.00
27334;BME280;14817;57.104;-2.094;2023-07-31T09:42:59;98292.56;;;22.28;100.00
27334;BME280;14817;57.104;-2.094;2023-07-31T09:45:26;98334.75;;;22.40;100.00
27334;BME280;14817;57.104;-2.094;2023-07-31T09:48:07;98310.25;;;21.86;100.00
27334;BME280;14817;57.104;-2.094;2023-07-31T09:50:38;98331.06;;;22.16;100.00
27334;BME280;14817;57.104;-2.094;2023-07-31T09:53:06;98298.03;;;22.28;100.00
27334;BME280;14817;57.104;-2.094;2023-07-31T09:55:33;98294.00;;;22.10;100.00
27334;BME280;14817;57.104;-2.094;2023-07-31T09:58:02;98332.97;;;22.15;100.00
27334;BME280;14817;57.104;-2.094;2023-07-31T10:00:30;98278.47;;;21.60;100.00
27334;BME280;14817;57.104;-2.094;2023-07-31T10:03:00;98289.41;;;22.05;100.00
27334;BME280;14817;57.104;-2.094;2023-07-31T10:05:31;98245.66;;;21.86;100.00
27334;BME280;14817;57.104;-2.094;2023-07-31T10:08:00;98253.50;;;21.43;100.00
27334;BME280;14817;57.104;-2.094;2023-07-31T10:10:27;98234.25;;;21.19;100.00
27334;BME280;14817;57.104;-2.094;2023-07-31T10:12:54;98256.75;;;21.40;100.00
27334;BME280;14817;57.104;-2.094;2023-07-31T10:15:22;98244.28;;;21.34;100.00
27334;BME280;14817;57.104;-2.094;2023-07-31T10:17:50;98238.91;;;21.13;100.00
27334;BME280;14817;57.104;-2.094;2023-07-31T10:20:17;98217.44;;;20.96;100.00
27334;BME280;14817;57.104;-2.094;2023-07-31T10:22:44;98186.47;;;20.82;100.00
27334;BME280;14817;57.104;-2.094;2023-07-31T10:25:12;98171.00;;;20.72;100.00
27334;BME280;14817;57.104;-2.094;2023-07-31T10:27:39;98145.22;;;20.59;100.00
27334;BME280;14817;57.104;-2.094;2023-07-31T10:30:07;98169.63;;;20.75;100.00
27334;BME280;14817;57.104;-2.094;2023-07-31T10:32:34;98170.13;;;20.97;100.00
27334;BME280;14817;57.104;-2.094;2023-07-31T10:35:02;98087.06;;;20.25;100.00
27334;BME280;14817;57.104;-2.094;2023-07-31T10:37:35;98026.84;;;19.82;100.00
27334;BME280;14817;57.104;-2.094;2023-07-31T10:40:04;97977.41;;;19.64;100.00
27334;BME280;14817;57.104;-2.094;2023-07-31T10:42:35;97946.47;;;19.65;100.00
27334;BME280;14817;57.104;-2.094;2023-07-31T10:45:06;97931.53;;;19.73;100.00
27334;BME280;14817;57.104;-2.094;2023-07-31T10:52:48;97935.56;;;19.86;100.00
27334;BME280;14817;57.104;-2.094;2023-07-31T10:57:47;97910.75;;;20.08;100.00
27334;BME280;14817;57.104;-2.094;2023-07-31T11:00:25;97877.22;;;20.33;100.00
27334;BME280;14817;57.104;-2.094;2023-07-31T11:05:44;97931.34;;;20.24;100.00
27334;BME280;14817;57.104;-2.094;2023-07-31T11:08:12;97937.00;;;20.38;100.00
27334;BME280;14817;57.104;-2.094;2023-07-31T11:10:39;97942.84;;;20.01;100.00
27334;BME280;14817;57.104;-2.094;2023-07-31T11:13:06;97952.78;;;20.31;100.00
27334;BME280;14817;57.104;-2.094;2023-07-31T11:15:32;97962.00;;;20.40;100.00
27334;BME280;14817;57.104;-2.094;2023-07-31T11:18:00;97973.34;;;20.52;100.00
27334;BME280;14817;57.104;-2.094;2023-07-31T11:20:27;98012.53;;;21.01;100.00
27334;BME280;14817;57.104;-2.094;2023-07-31T11:22:57;98031.41;;;20.87;100.00
27334;BME280;14817;57.104;-2.094;2023-07-31T11:25:28;97979.16;;;20.30;100.00
27334;BME280;14817;57.104;-2.094;2023-07-31T11:27:55;97941.19;;;20.15;100.00
27334;BME280;14817;57.104;-2.094;2023-07-31T11:30:23;97902.38;;;19.99;100.00
27334;BME280;14817;57.104;-2.094;2023-07-31T11:32:49;97893.78;;;19.66;100.00
27334;BME280;14817;57.104;-2.094;2023-07-31T11:35:17;97845.22;;;19.59;100.00
27334;BME280;14817;57.104;-2.094;2023-07-31T11:37:45;97815.63;;;19.63;100.00
27334;BME280;14817;57.104;-2.094;2023-07-31T11:40:12;97810.50;;;19.51;100.00
27334;BME280;14817;57.104;-2.094;2023-07-31T11:42:39;97801.00;;;19.44;100.00
27334;BME280;14817;57.104;-2.094;2023-07-31T11:45:06;97799.84;;;19.65;100.00
27334;BME280;14817;57.104;-2.094;2023-07-31T11:47:33;97784.78;;;19.28;100.00
27334;BME280;14817;57.104;-2.094;2023-07-31T11:50:04;97773.59;;;19.45;100.00
27334;BME280;14817;57.104;-2.094;2023-07-31T11:52:32;97771.41;;;19.47;100.00
27334;BME280;14817;57.104;-2.094;2023-07-31T11:55:00;97778.63;;;19.77;100.00
27334;BME280;14817;57.104;-2.094;2023-07-31T11:57:27;97790.00;;;19.85;100.00
27334;BME280;14817;57.104;-2.094;2023-07-31T11:59:55;97780.03;;;19.70;100.00
27334;BME280;14817;57.104;-2.094;2023-07-31T12:02:22;97769.31;;;19.94;100.00
27334;BME280;14817;57.104;-2.094;2023-07-31T12:04:49;97783.00;;;19.73;100.00
27334;BME280;14817;57.104;-2.094;2023-07-31T12:07:15;97765.88;;;19.78;100.00
27334;BME280;14817;57.104;-2.094;2023-07-31T12:09:52;97779.84;;;20.01;100.00
27334;BME280;14817;57.104;-2.094;2023-07-31T12:12:20;97747.47;;;19.59;100.00
27334;BME280;14817;57.104;-2.094;2023-07-31T12:14:47;97739.66;;;19.48;100.00
27334;BME280;14817;57.104;-2.094;2023-07-31T12:17:14;97724.72;;;19.45;100.00
27334;BME280;14817;57.104;-2.094;2023-07-31T12:19:41;97719.91;;;19.32;100.00
27334;BME280;14817;57.104;-2.094;2023-07-31T12:22:12;97705.50;;;19.36;100.00
27334;BME280;14817;57.104;-2.094;2023-07-31T12:24:39;97700.13;;;19.26;100.00
27334;BME280;14817;57.104;-2.094;2023-07-31T12:27:24;97694.84;;;18.90;100.00
27334;BME280;14817;57.104;-2.094;2023-07-31T12:29:52;97685.97;;;19.34;100.00
27334;BME280;14817;57.104;-2.094;2023-07-31T12:32:20;97683.50;;;18.78;100.00
27334;BME280;14817;57.104;-2.094;2023-07-31T12:34:46;97675.59;;;18.92;100.00
27334;BME280;14817;57.104;-2.094;2023-07-31T12:37:13;97676.47;;;18.62;100.00
27334;BME280;14817;57.104;-2.094;2023-07-31T12:39:40;97667.56;;;18.30;100.00
27334;BME280;14817;57.104;-2.094;2023-07-31T12:42:06;97663.53;;;18.33;100.00
27334;BME280;14817;57.104;-2.094;2023-07-31T12:44:33;97652.09;;;18.51;100.00
27334;BME280;14817;57.104;-2.094;2023-07-31T12:47:00;97647.25;;;18.33;100.00
27334;BME280;14817;57.104;-2.094;2023-07-31T12:49:27;97646.72;;;18.00;100.00
27334;BME280;14817;57.104;-2.094;2023-07-31T12:51:53;97666.78;;;17.89;100.00
27334;BME280;14817;57.104;-2.094;2023-07-31T12:54:20;97662.69;;;17.71;100.00
27334;BME280;14817;57.104;-2.094;2023-07-31T12:56:47;97677.63;;;17.84;100.00
27334;BME280;14817;57.104;-2.094;2023-07-31T12:59:14;97776.38;;;17.76;100.00
27334;BME280;14817;57.104;-2.094;2023-07-31T13:01:40;97707.41;;;17.84;100.00
27334;BME280;14817;57.104;-2.094;2023-07-31T13:04:07;97652.44;;;17.93;100.00